createdAt,value
2018-07-31T00:00:42.391Z,22.80
2018-07-31T00:03:11.259Z,22.80
2018-07-31T00:05:43.003Z,22.80
2018-07-31T00:08:11.847Z,22.80
2018-07-31T00:10:40.714Z,22.70
2018-07-31T00:15:38.367Z,22.70
2018-07-31T00:18:07.347Z,22.70
2018-07-31T00:20:36.200Z,22.70
2018-07-31T00:25:34.236Z,22.60
2018-07-31T00:28:03.175Z,22.60
2018-07-31T00:33:01.011Z,22.60
2018-07-31T00:35:30.096Z,22.50
2018-07-31T00:37:58.970Z,22.50
2018-07-31T00:40:27.834Z,22.50
2018-07-31T00:42:56.737Z,22.50
2018-07-31T00:45:25.712Z,22.50
2018-07-31T00:50:23.436Z,22.40
2018-07-31T00:52:52.282Z,22.50
2018-07-31T00:57:49.926Z,22.40
2018-07-31T01:00:18.776Z,22.40
2018-07-31T01:02:47.611Z,22.40
2018-07-31T01:05:16.477Z,22.40
2018-07-31T01:07:45.331Z,22.30
2018-07-31T01:10:14.207Z,22.40
2018-07-31T01:12:43.025Z,22.30
2018-07-31T01:15:11.929Z,22.30
2018-07-31T01:17:40.779Z,22.30
2018-07-31T01:20:09.719Z,22.20
2018-07-31T01:22:38.616Z,22.20
2018-07-31T01:25:07.911Z,22.20
2018-07-31T01:27:36.798Z,22.20
2018-07-31T01:30:05.919Z,22.20
2018-07-31T01:32:34.864Z,22.20
2018-07-31T01:35:03.891Z,22.20
2018-07-31T01:37:32.780Z,22.20
2018-07-31T01:40:01.648Z,22.10
2018-07-31T01:42:30.607Z,22.10
2018-07-31T01:44:59.476Z,22.10
2018-07-31T01:47:28.349Z,22.00
2018-07-31T01:49:57.237Z,22.00
2018-07-31T01:52:26.100Z,22.00
2018-07-31T01:54:55.358Z,22.00
2018-07-31T01:57:24.216Z,22.00
2018-07-31T01:59:53.079Z,22.00
2018-07-31T02:02:21.953Z,21.90
2018-07-31T02:04:50.819Z,21.90
2018-07-31T02:07:19.663Z,21.90
2018-07-31T02:09:48.584Z,21.90
2018-07-31T02:12:17.511Z,21.90
2018-07-31T02:14:46.350Z,21.90
2018-07-31T02:17:15.251Z,21.90
2018-07-31T02:19:44.127Z,21.90
2018-07-31T02:22:12.969Z,21.90
2018-07-31T02:27:10.812Z,21.80
2018-07-31T02:29:45.396Z,21.80
2018-07-31T02:32:14.708Z,21.80
2018-07-31T02:34:43.717Z,21.80
2018-07-31T02:37:12.611Z,21.80
2018-07-31T02:39:41.692Z,21.70
2018-07-31T02:42:10.555Z,21.70
2018-07-31T02:44:39.425Z,21.70
2018-07-31T02:49:37.232Z,21.70
2018-07-31T02:52:06.095Z,21.70
2018-07-31T02:54:34.944Z,21.60
2018-07-31T02:57:03.867Z,21.60
2018-07-31T03:02:01.637Z,21.60
2018-07-31T03:04:30.540Z,21.60
2018-07-31T03:09:28.232Z,21.50
2018-07-31T03:11:57.119Z,21.50
2018-07-31T03:14:26.306Z,21.50
2018-07-31T03:16:55.171Z,21.50
2018-07-31T03:19:24.031Z,21.50
2018-07-31T03:21:52.873Z,21.50
2018-07-31T03:24:21.782Z,21.50
2018-07-31T03:26:51.414Z,21.50
2018-07-31T03:31:50.039Z,21.50
2018-07-31T03:34:19.136Z,21.50
2018-07-31T03:36:48.043Z,21.40
2018-07-31T03:39:16.914Z,21.40
2018-07-31T03:41:45.785Z,21.40
2018-07-31T03:46:43.382Z,21.40
2018-07-31T03:49:12.215Z,21.40
2018-07-31T03:51:41.045Z,21.40
2018-07-31T03:54:09.955Z,21.30
2018-07-31T03:56:38.807Z,21.30
2018-07-31T03:59:07.712Z,21.30
2018-07-31T04:01:36.607Z,21.30
2018-07-31T04:04:05.542Z,21.20
2018-07-31T04:06:34.453Z,21.20
2018-07-31T04:09:05.359Z,21.20
2018-07-31T04:11:34.282Z,21.20
2018-07-31T04:16:32.192Z,21.20
2018-07-31T04:19:01.100Z,21.20
2018-07-31T04:21:29.990Z,21.20
2018-07-31T04:23:59.312Z,21.20
2018-07-31T04:26:28.247Z,21.20
2018-07-31T04:28:57.146Z,21.10
2018-07-31T04:33:54.755Z,21.20
2018-07-31T04:36:24.156Z,21.20
2018-07-31T04:38:53.097Z,21.20
2018-07-31T04:46:19.518Z,21.30
2018-07-31T04:48:48.427Z,21.30
2018-07-31T04:51:17.300Z,21.40
2018-07-31T04:53:46.336Z,21.40
2018-07-31T04:56:15.294Z,21.40
2018-07-31T04:58:44.161Z,21.40
2018-07-31T05:01:13.068Z,21.40
2018-07-31T05:03:42.920Z,21.50
2018-07-31T05:06:11.966Z,21.50
2018-07-31T05:08:40.835Z,21.50
2018-07-31T05:11:09.786Z,21.50
2018-07-31T05:16:07.468Z,21.50
2018-07-31T05:18:36.334Z,21.60
2018-07-31T05:21:05.298Z,21.60
2018-07-31T05:23:34.152Z,21.60
2018-07-31T05:28:31.791Z,21.70
2018-07-31T05:31:00.743Z,21.70
2018-07-31T05:33:29.598Z,21.80
2018-07-31T05:35:58.494Z,21.80
2018-07-31T05:38:27.893Z,21.80
2018-07-31T05:40:56.822Z,21.80
2018-07-31T05:43:25.673Z,21.80
2018-07-31T05:45:54.539Z,21.80
2018-07-31T05:48:23.375Z,21.90
2018-07-31T05:53:20.973Z,21.90
2018-07-31T05:55:49.829Z,21.90
2018-07-31T05:58:18.675Z,21.90
2018-07-31T06:00:47.549Z,22.00
2018-07-31T06:03:16.426Z,22.00
2018-07-31T06:05:45.263Z,22.00
2018-07-31T06:08:14.123Z,22.10
2018-07-31T06:10:42.988Z,22.10
2018-07-31T06:13:11.824Z,22.10
2018-07-31T06:15:40.654Z,22.20
2018-07-31T06:20:38.271Z,22.20
2018-07-31T06:23:07.286Z,22.30
2018-07-31T06:25:36.125Z,22.40
2018-07-31T06:30:34.035Z,22.50
2018-07-31T06:33:02.844Z,22.50
2018-07-31T06:35:31.696Z,22.50
2018-07-31T06:38:00.535Z,22.60
2018-07-31T06:40:29.449Z,22.60
2018-07-31T06:42:58.284Z,22.70
2018-07-31T06:45:27.186Z,22.70
2018-07-31T06:47:56.043Z,22.80
2018-07-31T06:50:24.971Z,22.80
2018-07-31T06:52:53.950Z,22.90
2018-07-31T06:55:22.807Z,22.90
2018-07-31T06:57:51.675Z,23.00
2018-07-31T07:00:20.511Z,23.10
2018-07-31T07:02:49.336Z,23.10
2018-07-31T07:05:18.183Z,23.20
2018-07-31T07:07:47.012Z,23.20
2018-07-31T07:10:15.858Z,23.30
2018-07-31T07:12:44.719Z,23.40
2018-07-31T07:15:13.580Z,23.40
2018-07-31T07:17:42.431Z,23.50
2018-07-31T07:20:11.751Z,23.50
2018-07-31T07:22:41.328Z,23.60
2018-07-31T07:25:10.580Z,23.70
2018-07-31T07:30:08.827Z,23.80
2018-07-31T07:32:37.736Z,23.90
2018-07-31T07:35:07.216Z,23.90
2018-07-31T07:37:36.500Z,24.00
2018-07-31T07:40:05.507Z,24.10
2018-07-31T07:42:34.367Z,24.20
2018-07-31T07:45:04.340Z,24.30
2018-07-31T07:47:33.308Z,24.30
2018-07-31T07:50:02.894Z,24.40
2018-07-31T07:52:31.844Z,24.50
2018-07-31T07:55:00.652Z,24.60
2018-07-31T07:57:29.502Z,24.70
2018-07-31T07:59:58.368Z,24.80
2018-07-31T08:02:27.255Z,24.80
2018-07-31T08:04:56.125Z,24.90
2018-07-31T08:07:24.962Z,25.00
2018-07-31T08:09:53.852Z,25.00
2018-07-31T08:12:22.691Z,25.10
2018-07-31T08:14:51.554Z,25.20
2018-07-31T08:17:20.483Z,25.20
2018-07-31T08:19:49.391Z,25.30
2018-07-31T08:22:18.327Z,25.30
2018-07-31T08:24:47.156Z,25.40
2018-07-31T08:27:16.060Z,25.40
2018-07-31T08:29:44.967Z,25.50
2018-07-31T08:32:13.816Z,25.50
2018-07-31T08:34:42.655Z,25.60
2018-07-31T08:37:12.025Z,25.70
2018-07-31T08:39:40.921Z,25.80
2018-07-31T08:42:09.756Z,25.80
2018-07-31T08:44:38.682Z,25.90
2018-07-31T08:47:07.590Z,25.90
2018-07-31T08:52:05.291Z,26.10
2018-07-31T08:54:34.152Z,26.20
2018-07-31T08:57:03.120Z,26.20
2018-07-31T08:59:31.971Z,26.30
2018-07-31T09:02:00.824Z,26.30
2018-07-31T09:04:29.763Z,26.40
2018-07-31T09:06:58.664Z,26.40
2018-07-31T09:09:27.606Z,26.50
2018-07-31T09:11:56.548Z,26.60
2018-07-31T09:14:25.436Z,26.60
2018-07-31T09:16:54.956Z,26.70
2018-07-31T09:19:23.874Z,26.70
2018-07-31T09:21:52.744Z,26.80
2018-07-31T09:24:21.677Z,26.90
2018-07-31T09:26:50.508Z,27.00
2018-07-31T09:29:19.372Z,27.10
2018-07-31T09:34:16.959Z,27.50
2018-07-31T09:36:45.783Z,27.50
2018-07-31T09:39:14.688Z,27.50
2018-07-31T09:41:43.539Z,27.50
2018-07-31T09:44:12.385Z,27.50
2018-07-31T09:46:41.284Z,27.50
2018-07-31T09:49:10.233Z,27.60
2018-07-31T09:51:39.123Z,27.70
2018-07-31T09:54:08.435Z,27.70
2018-07-31T09:56:37.333Z,27.80
2018-07-31T09:59:06.246Z,27.90
2018-07-31T10:01:35.097Z,27.90
2018-07-31T10:04:04.051Z,27.90
2018-07-31T10:06:32.927Z,28.00
2018-07-31T10:09:01.784Z,28.10
2018-07-31T10:11:30.657Z,28.20
2018-07-31T10:13:59.498Z,28.30
2018-07-31T10:16:28.367Z,28.40
2018-07-31T10:18:57.203Z,28.50
2018-07-31T10:21:26.055Z,28.60
2018-07-31T10:26:24.417Z,28.70
2018-07-31T10:28:53.738Z,28.80
2018-07-31T10:31:22.684Z,28.90
2018-07-31T10:33:51.695Z,29.00
2018-07-31T10:36:20.679Z,29.10
2018-07-31T10:38:50.247Z,29.10
2018-07-31T10:41:19.575Z,29.20
2018-07-31T10:43:48.446Z,29.20
2018-07-31T10:46:17.347Z,29.30
2018-07-31T10:48:46.196Z,29.40
2018-07-31T10:51:15.050Z,29.50
2018-07-31T10:53:44.387Z,29.50
2018-07-31T10:56:13.279Z,29.70
2018-07-31T11:01:11.315Z,29.80
2018-07-31T11:03:40.787Z,29.80
2018-07-31T11:06:09.740Z,29.80
2018-07-31T11:08:39.189Z,29.90
2018-07-31T11:11:08.129Z,29.90
2018-07-31T11:13:36.986Z,29.90
2018-07-31T11:16:06.526Z,30.00
2018-07-31T11:18:35.943Z,30.10
2018-07-31T11:21:04.965Z,30.30
2018-07-31T11:23:33.893Z,30.30
2018-07-31T11:26:03.179Z,30.50
2018-07-31T11:33:31.548Z,30.50
2018-07-31T11:36:00.471Z,30.40
2018-07-31T11:38:29.976Z,30.60
2018-07-31T11:40:58.923Z,30.70
2018-07-31T11:43:27.779Z,30.80
2018-07-31T11:45:57.172Z,30.90
2018-07-31T11:50:55.655Z,31.00
2018-07-31T11:55:54.259Z,30.90
2018-07-31T11:58:24.699Z,30.90
2018-07-31T12:00:53.643Z,30.70
2018-07-31T12:03:23.159Z,30.60
2018-07-31T12:05:52.687Z,30.90
2018-07-31T12:08:21.584Z,31.10
2018-07-31T12:10:51.162Z,31.20
2018-07-31T12:13:20.239Z,31.10
2018-07-31T12:15:49.280Z,31.20
2018-07-31T12:18:18.407Z,31.30
2018-07-31T12:25:45.459Z,31.30
2018-07-31T12:30:43.853Z,31.40
2018-07-31T12:33:12.814Z,31.40
2018-07-31T12:35:41.638Z,31.60
2018-07-31T12:38:10.515Z,31.70
2018-07-31T12:40:39.392Z,32.10
2018-07-31T12:45:36.959Z,32.40
2018-07-31T12:50:34.615Z,32.50
2018-07-31T12:53:03.567Z,32.40
2018-07-31T12:55:32.404Z,32.30
2018-07-31T12:58:01.296Z,32.20
2018-07-31T13:00:30.151Z,32.30
2018-07-31T13:02:59.020Z,32.50
2018-07-31T13:05:28.225Z,32.40
2018-07-31T13:07:57.090Z,32.40
2018-07-31T13:12:54.727Z,32.50
2018-07-31T13:15:23.619Z,32.80
2018-07-31T13:17:52.483Z,32.80
2018-07-31T13:20:21.359Z,32.90
2018-07-31T13:22:50.221Z,33.00
2018-07-31T13:30:17.156Z,33.50
2018-07-31T13:32:46.068Z,33.40
2018-07-31T13:35:14.920Z,33.40
2018-07-31T13:37:43.792Z,33.40
2018-07-31T13:40:12.784Z,33.50
2018-07-31T13:45:10.348Z,33.80
2018-07-31T13:47:39.244Z,33.90
2018-07-31T13:50:08.188Z,34.00
2018-07-31T13:52:37.055Z,34.10
2018-07-31T13:55:06.089Z,34.00
2018-07-31T13:57:35.015Z,34.20
2018-07-31T14:00:04.665Z,34.10
2018-07-31T14:02:33.602Z,34.00
2018-07-31T14:05:02.471Z,34.10
2018-07-31T14:07:31.383Z,34.00
2018-07-31T14:10:00.245Z,34.10
2018-07-31T14:12:29.084Z,34.10
2018-07-31T14:17:26.694Z,34.10
2018-07-31T14:19:56.638Z,34.10
2018-07-31T14:22:25.671Z,34.10
2018-07-31T14:24:54.641Z,34.30
2018-07-31T14:29:52.231Z,34.30
2018-07-31T14:32:21.107Z,34.20
2018-07-31T14:39:47.498Z,34.20
2018-07-31T14:42:16.350Z,34.20
2018-07-31T14:44:45.232Z,34.10
2018-07-31T14:47:14.099Z,34.10
2018-07-31T14:49:42.992Z,34.00
2018-07-31T14:52:11.892Z,34.00
2018-07-31T14:54:40.739Z,34.00
2018-07-31T14:57:09.613Z,33.90
2018-07-31T14:59:38.463Z,33.90
2018-07-31T15:02:07.351Z,33.70
2018-07-31T15:04:36.219Z,33.60
2018-07-31T15:07:05.084Z,33.60
2018-07-31T15:09:33.976Z,33.50
2018-07-31T15:12:02.865Z,33.50
2018-07-31T15:14:31.794Z,33.40
2018-07-31T15:17:00.660Z,33.40
2018-07-31T15:19:29.547Z,33.30
2018-07-31T15:21:58.408Z,33.40
2018-07-31T15:24:27.260Z,33.30
2018-07-31T15:26:56.170Z,33.30
2018-07-31T15:29:25.078Z,33.20
2018-07-31T15:34:23.407Z,33.20
2018-07-31T15:36:52.749Z,33.10
2018-07-31T15:39:21.895Z,33.10
2018-07-31T15:41:50.818Z,33.00
2018-07-31T15:44:19.711Z,33.00
2018-07-31T15:46:48.600Z,32.90
2018-07-31T15:49:17.464Z,32.80
2018-07-31T15:51:46.343Z,32.70
2018-07-31T15:54:15.200Z,32.60
2018-07-31T15:56:44.128Z,32.50
2018-07-31T15:59:12.972Z,32.40
2018-07-31T16:01:41.859Z,32.30
2018-07-31T16:04:10.794Z,32.30
2018-07-31T16:06:39.674Z,32.10
2018-07-31T16:09:11.096Z,32.00
2018-07-31T16:11:40.141Z,31.90
2018-07-31T16:14:09.012Z,31.90
2018-07-31T16:16:37.942Z,31.80
2018-07-31T16:19:07.459Z,31.70
2018-07-31T16:21:36.910Z,31.70
2018-07-31T16:24:05.838Z,31.60
2018-07-31T16:26:34.758Z,31.60
2018-07-31T16:29:03.772Z,31.50
2018-07-31T16:34:01.404Z,31.50
2018-07-31T16:36:30.727Z,31.40
2018-07-31T16:38:59.668Z,31.40
2018-07-31T16:43:57.346Z,31.40
2018-07-31T16:46:26.196Z,31.40
2018-07-31T16:48:55.050Z,31.40
2018-07-31T16:51:23.981Z,31.30
2018-07-31T16:53:52.782Z,31.20
2018-07-31T16:56:21.650Z,31.20
2018-07-31T16:58:51.387Z,31.20
2018-07-31T17:03:49.013Z,31.20
2018-07-31T17:06:17.884Z,31.10
2018-07-31T17:08:46.769Z,31.10
2018-07-31T17:11:15.628Z,31.10
2018-07-31T17:16:13.265Z,31.00
2018-07-31T17:18:42.151Z,30.90
2018-07-31T17:21:11.116Z,30.90
2018-07-31T17:23:39.966Z,30.90
2018-07-31T17:28:37.585Z,30.70
2018-07-31T17:31:06.731Z,30.70
2018-07-31T17:33:35.796Z,30.70
2018-07-31T17:36:04.666Z,30.70
2018-07-31T17:38:33.707Z,30.80
2018-07-31T17:41:02.559Z,30.70
2018-07-31T17:43:31.411Z,30.60
2018-07-31T17:48:29.024Z,30.60
2018-07-31T17:50:57.992Z,30.60
2018-07-31T17:55:55.570Z,30.50
2018-07-31T17:58:24.446Z,30.40
2018-07-31T18:03:22.512Z,30.40
2018-07-31T18:05:51.389Z,30.30
2018-07-31T18:08:20.255Z,30.30
2018-07-31T18:10:49.163Z,30.30
2018-07-31T18:13:18.047Z,30.20
2018-07-31T18:15:46.943Z,30.00
2018-07-31T18:18:15.786Z,29.90
2018-07-31T18:20:44.648Z,29.80
2018-07-31T18:23:13.552Z,29.70
2018-07-31T18:25:42.427Z,29.70
2018-07-31T18:28:12.060Z,29.60
2018-07-31T18:30:41.360Z,29.50
2018-07-31T18:33:10.355Z,29.40
2018-07-31T18:35:39.252Z,29.30
2018-07-31T18:38:08.128Z,29.20
2018-07-31T18:40:37.416Z,29.20
2018-07-31T18:43:06.631Z,29.00
2018-07-31T18:45:35.583Z,28.90
2018-07-31T18:48:04.672Z,28.90
2018-07-31T18:50:33.985Z,28.80
2018-07-31T18:53:03.191Z,28.70
2018-07-31T18:58:01.482Z,28.70
2018-07-31T19:00:31.062Z,28.70
2018-07-31T19:03:00.206Z,28.60
2018-07-31T19:05:29.264Z,28.50
2018-07-31T19:07:58.390Z,28.40
2018-07-31T19:10:27.572Z,28.40
2018-07-31T19:12:56.647Z,28.40
2018-07-31T19:15:26.028Z,28.30
2018-07-31T19:17:54.981Z,28.30
2018-07-31T19:22:54.007Z,28.20
2018-07-31T19:25:23.140Z,28.10
2018-07-31T19:27:52.432Z,28.10
2018-07-31T19:30:21.669Z,28.00
2018-07-31T19:32:51.175Z,28.00
2018-07-31T19:35:20.075Z,27.90
2018-07-31T19:37:48.979Z,27.90
2018-07-31T19:45:16.829Z,27.60
2018-07-31T19:47:46.968Z,27.50
2018-07-31T19:50:16.182Z,27.50
2018-07-31T19:52:45.387Z,27.40
2018-07-31T19:55:14.560Z,27.40
2018-07-31T19:57:43.752Z,27.40
2018-07-31T20:00:13.546Z,27.40
2018-07-31T20:02:42.769Z,27.30
2018-07-31T20:07:42.593Z,27.10
2018-07-31T20:10:11.696Z,27.00
2018-07-31T20:15:10.325Z,26.90
2018-07-31T20:17:39.471Z,26.90
2018-07-31T20:20:09.449Z,26.80
2018-07-31T20:22:38.615Z,26.80
2018-07-31T20:25:08.397Z,26.70
2018-07-31T20:27:37.518Z,26.80
2018-07-31T20:30:07.335Z,26.70
2018-07-31T20:32:36.536Z,26.60
2018-07-31T20:35:05.642Z,26.60
2018-07-31T20:40:04.011Z,26.40
2018-07-31T20:42:32.931Z,26.40
2018-07-31T20:45:01.794Z,26.40
2018-07-31T20:47:30.867Z,26.40
2018-07-31T20:50:00.555Z,26.30
2018-07-31T20:52:29.834Z,26.30
2018-07-31T20:54:58.666Z,26.30
2018-07-31T20:57:27.581Z,26.30
2018-07-31T20:59:56.451Z,26.30
2018-07-31T21:02:25.338Z,26.20
2018-07-31T21:04:54.664Z,26.20
2018-07-31T21:07:23.672Z,26.20
2018-07-31T21:09:52.535Z,26.10
2018-07-31T21:14:50.183Z,26.10
2018-07-31T21:17:19.482Z,26.00
2018-07-31T21:19:48.627Z,25.90
2018-07-31T21:22:17.479Z,25.90
2018-07-31T21:24:46.317Z,25.90
2018-07-31T21:27:15.172Z,25.80
2018-07-31T21:29:44.056Z,25.80
2018-07-31T21:32:13.020Z,25.70
2018-07-31T21:34:41.928Z,25.70
2018-07-31T21:37:11.537Z,25.70
2018-07-31T21:39:40.443Z,25.70
2018-07-31T21:42:09.328Z,25.60
2018-07-31T21:44:38.225Z,25.50
2018-07-31T21:47:07.320Z,25.50
2018-07-31T21:49:36.182Z,25.50
2018-07-31T21:52:05.048Z,25.40
2018-07-31T21:54:33.872Z,25.40
2018-07-31T21:57:02.760Z,25.30
2018-07-31T21:59:31.673Z,25.30
2018-07-31T22:02:00.568Z,25.20
2018-07-31T22:04:29.423Z,25.20
2018-07-31T22:06:58.309Z,25.20
2018-07-31T22:09:30.608Z,25.10
2018-07-31T22:11:59.923Z,25.10
2018-07-31T22:14:28.804Z,25.00
2018-07-31T22:16:57.732Z,25.00
2018-07-31T22:19:26.723Z,25.00
2018-07-31T22:21:55.561Z,25.00
2018-07-31T22:24:24.603Z,25.00
2018-07-31T22:26:53.437Z,25.00
2018-07-31T22:29:22.292Z,25.00
2018-07-31T22:31:51.176Z,24.90
2018-07-31T22:34:20.012Z,24.80
2018-07-31T22:36:49.779Z,24.80
2018-07-31T22:39:18.644Z,24.80
2018-07-31T22:41:47.535Z,24.80
2018-07-31T22:44:16.398Z,24.80
2018-07-31T22:46:45.273Z,24.70
2018-07-31T22:49:14.159Z,24.70
2018-07-31T22:51:43.044Z,24.70
2018-07-31T22:54:11.879Z,24.60
2018-07-31T22:56:40.726Z,24.60
2018-07-31T22:59:09.556Z,24.50
2018-07-31T23:01:38.470Z,24.50
2018-07-31T23:04:07.351Z,24.50
2018-07-31T23:09:08.199Z,24.40
2018-07-31T23:11:37.059Z,24.40
2018-07-31T23:14:06.031Z,24.40
2018-07-31T23:16:35.564Z,24.40
2018-07-31T23:19:04.557Z,24.30
2018-07-31T23:21:33.444Z,24.30
2018-07-31T23:24:02.333Z,24.30
2018-07-31T23:26:31.247Z,24.30
2018-07-31T23:29:00.096Z,24.30
2018-07-31T23:31:28.996Z,24.30
2018-07-31T23:33:57.861Z,24.30
2018-07-31T23:36:26.728Z,24.30
2018-07-31T23:38:55.586Z,24.20
2018-07-31T23:41:24.446Z,24.20
2018-07-31T23:43:53.331Z,24.20
2018-07-31T23:46:22.166Z,24.10
2018-07-31T23:48:51.027Z,24.00
2018-07-31T23:51:19.886Z,24.00
2018-07-31T23:53:48.754Z,24.00
2018-07-31T23:56:17.652Z,24.00
